Daten der privaten, lokalen Wetterstation von Stefan Zilt in Osnabrck
Wetterdaten: aktuell Mittwoch, 04.10.2023 17:49
Datum Zeit Temp. NORD Luftfeuchte Luftdruck Regen Wind Windrichtung Windrichtung Sonnenschein Helligkeit
04.10.2023 17:49 15,5 C 35 % 1010 hPa 0,0 l/m 15,0 km/h W-SW22.5 240 0 min 5,16 klux
04.10.2023 17:44 15,5 C 35 % 1010 hPa 0,0 l/m 17,1 km/h SW45 215 0 min 5,70 klux
04.10.2023 17:39 15,6 C 35 % 1010 hPa 0,0 l/m 9,8 km/h W-SW22.5 250 0 min 6,19 klux
04.10.2023 17:34 15,7 C 33 % 1010 hPa 0,0 l/m 19,8 km/h W-SW67.5 245 0 min 6,82 klux
04.10.2023 17:29 15,9 C 33 % 1010 hPa 0,0 l/m 20,4 km/h SW45 225 0 min 7,50 klux
04.10.2023 17:24 16,1 C 32 % 1010 hPa 0,0 l/m 14,7 km/h SW67.5 225 0 min 8,28 klux
04.10.2023 17:19 16,2 C 32 % 1010 hPa 0,0 l/m 14,9 km/h SW45 220 0 min 8,88 klux
04.10.2023 17:14 16,2 C 31 % 1010 hPa 0,0 l/m 17,0 km/h W-SW45 245 0 min 9,2 klux
04.10.2023 17:09 16,2 C 31 % 1010 hPa 0,0 l/m 15,1 km/h SW45 230 0 min 9,4 klux
04.10.2023 17:04 16,4 C 31 % 1010 hPa 0,0 l/m 24,4 km/h SW22.5 235 0 min 9,5 klux
04.10.2023 16:59 16,4 C 31 % 1010 hPa 0,0 l/m 21,4 km/h W-SW45 240 0 min 10,0 klux
04.10.2023 16:54 16,6 C 30 % 1010 hPa 0,0 l/m 26,3 km/h SW45 230 0 min 11,1 klux
04.10.2023 16:49 17,0 C 30 % 1010 hPa 0,0 l/m 16,9 km/h S-SW45 210 0 min 11,9 klux
04.10.2023 16:44 17,0 C 30 % 1010 hPa 0,0 l/m 11,5 km/h W-SW45 240 0 min 12,3 klux
04.10.2023 16:39 17,0 C 29 % 1010 hPa 0,0 l/m 18,9 km/h SW45 230 0 min 12,7 klux
04.10.2023 16:34 17,3 C 28 % 1010 hPa 0,0 l/m 20,3 km/h SW67.5 235 0 min 13,6 klux
04.10.2023 16:29 17,3 C 27 % 1010 hPa 0,0 l/m 19,9 km/h SW67.5 230 0 min 15,0 klux
04.10.2023 16:24 17,6 C 27 % 1010 hPa 0,0 l/m 19,8 km/h SW45 225 0 min 15,9 klux
04.10.2023 16:19 17,5 C 27 % 1010 hPa 0,0 l/m 21,3 km/h W-SW67.5 240 0 min 17,7 klux
04.10.2023 16:14 17,6 C 27 % 1010 hPa 0,0 l/m 29,9 km/h W-SW45 250 0 min 18,2 klux
04.10.2023 16:08 17,5 C 26 % 1010 hPa 0,0 l/m 25,6 km/h W-SW22.5 245 0 min 18,6 klux
04.10.2023 16:04 17,8 C 26 % 1010 hPa 0,0 l/m 32,5 km/h W-SW45 250 0 min 19,6 klux
04.10.2023 15:59 17,7 C 26 % 1010 hPa 0,0 l/m 25,3 km/h W-SW45 250 0 min 19,1 klux
04.10.2023 15:54 17,7 C 26 % 1010 hPa 0,0 l/m 24,0 km/h W-SW45 245 0 min 19,4 klux
04.10.2023 15:49 17,7 C 27 % 1011 hPa 0,0 l/m 23,6 km/h W-SW45 245 0 min 21,3 klux
04.10.2023 15:44 17,3 C 27 % 1011 hPa 0,0 l/m 30,9 km/h W-SW45 240 0 min 11,1 klux
04.10.2023 15:39 17,6 C 26 % 1011 hPa 0,0 l/m 29,6 km/h W-SW67.5 240 0 min 14,2 klux
04.10.2023 15:34 18,3 C 25 % 1011 hPa 0,0 l/m 15,6 km/h SW22.5 235 0 min 17,9 klux
04.10.2023 15:29 18,8 C 25 % 1011 hPa 0,0 l/m 23,1 km/h W-SW45 255 0 min 24,8 klux
04.10.2023 15:24 18,3 C 25 % 1011 hPa 0,0 l/m 20,1 km/h SW22.5 235 0 min 22,4 klux
04.10.2023 15:19 18,8 C 26 % 1010 hPa 0,0 l/m 13,9 km/h SW45 215 0 min 23,1 klux
04.10.2023 15:14 18,6 C 25 % 1010 hPa 0,0 l/m 18,4 km/h W-SW45 245 0 min 22,2 klux
04.10.2023 15:09 17,8 C 27 % 1010 hPa 0,0 l/m 24,0 km/h W-SW22.5 240 0 min 31,2 klux
04.10.2023 15:04 17,8 C 27 % 1010 hPa 0,0 l/m 18,9 km/h W-SW45 250 0 min 23,1 klux
04.10.2023 14:59 18,3 C 27 % 1011 hPa 0,0 l/m 22,3 km/h W-SW45 240 0 min 23,1 klux
04.10.2023 14:54 18,1 C 26 % 1011 hPa 0,0 l/m 19,8 km/h SW45 235 0 min 22,9 klux
04.10.2023 14:49 18,1 C 28 % 1011 hPa 0,0 l/m 22,3 km/h W-SW67.5 255 0 min 22,5 klux
04.10.2023 14:44 18,3 C 28 % 1011 hPa 0,0 l/m 19,8 km/h W-SW45 245 0 min 21,6 klux
04.10.2023 14:39 17,8 C 27 % 1011 hPa 0,0 l/m 23,6 km/h SW45 235 0 min 21,7 klux
04.10.2023 14:34 18,1 C 27 % 1011 hPa 0,0 l/m 22,0 km/h W-SW67.5 245 0 min 21,2 klux
04.10.2023 14:29 17,8 C 26 % 1011 hPa 0,0 l/m 21,6 km/h W-SW45 245 0 min 21,6 klux
04.10.2023 14:24 17,9 C 26 % 1011 hPa 0,0 l/m 18,1 km/h W-SW22.5 250 0 min 20,5 klux
04.10.2023 14:19 18,2 C 25 % 1011 hPa 0,0 l/m 31,0 km/h SW67.5 230 0 min 24,9 klux
04.10.2023 14:14 18,2 C 25 % 1011 hPa 0,0 l/m 28,1 km/h W-SW67.5 255 0 min 25,6 klux
04.10.2023 14:09 18,5 C 26 % 1011 hPa 0,0 l/m 21,2 km/h W-SW67.5 255 0 min 20,0 klux
04.10.2023 14:04 18,6 C 25 % 1011 hPa 0,0 l/m 23,5 km/h W-SW45 240 0 min 26,9 klux
04.10.2023 13:59 19,1 C 25 % 1011 hPa 0,0 l/m 25,7 km/h W-SW45 240 0 min 27,5 klux
04.10.2023 13:54 18,7 C 26 % 1011 hPa 0,0 l/m 22,4 km/h W-SW45 240 0 min 29,4 klux
04.10.2023 13:49 18,1 C 25 % 1011 hPa 0,0 l/m 22,8 km/h W-SW45 250 0 min 20,0 klux
04.10.2023 13:44 18,6 C 25 % 1011 hPa 0,0 l/m 21,5 km/h W-SW45 250 0 min 23,1 klux
04.10.2023 13:39 18,4 C 23 % 1011 hPa 0,0 l/m 23,5 km/h W-SW45 240 0 min 27,8 klux
04.10.2023 13:34 19,3 C 22 % 1011 hPa 0,0 l/m 21,0 km/h SW67.5 230 0 min 22,5 klux
04.10.2023 13:29 18,9 C 21 % 1011 hPa 0,0 l/m 25,8 km/h W67.5 260 0 min 36,9 klux
04.10.2023 13:24 19,7 C 0 % 1011 hPa 0,0 l/m 19,9 km/h SW45 235 0 min 30,5 klux
04.10.2023 13:19 19,3 C 0 % 1011 hPa 0,0 l/m 27,5 km/h W-SW45 255 0 min 35,5 klux
04.10.2023 13:14 19,9 C 0 % 1011 hPa 0,0 l/m 24,6 km/h W-SW67.5 250 0 min 35,7 klux
04.10.2023 13:09 20,3 C 0 % 1011 hPa 0,0 l/m 17,8 km/h W-SW67.5 255 0 min 32,9 klux
04.10.2023 13:04 20,4 C 0 % 1011 hPa 0,0 l/m 29,8 km/h W45 260 5 min 44,5 klux
04.10.2023 12:59 22,0 C 0 % 1011 hPa 0,0 l/m 27,0 km/h W-SW45 255 5 min 50,4 klux
04.10.2023 12:54 22,5 C 0 % 1011 hPa 0,0 l/m 22,3 km/h W-SW67.5 245 5 min 53,7 klux
04.10.2023 12:49 23,4 C 0 % 1011 hPa 0,0 l/m 21,9 km/h SW45 230 5 min 54,7 klux
04.10.2023 12:44 22,0 C 0 % 1011 hPa 0,0 l/m 20,0 km/h SW67.5 230 5 min 51,0 klux
04.10.2023 12:39 19,7 C 0 % 1011 hPa 0,0 l/m 26,1 km/h W67.5 260 5 min 50,3 klux
04.10.2023 12:34 19,8 C 0 % 1011 hPa 0,0 l/m 26,6 km/h W-SW67.5 255 5 min 49,9 klux
04.10.2023 12:29 20,4 C 0 % 1011 hPa 0,0 l/m 29,5 km/h SW67.5 230 5 min 56,1 klux
04.10.2023 12:24 22,1 C 0 % 1011 hPa 0,0 l/m 28,8 km/h SW67.5 235 5 min 56,4 klux
04.10.2023 12:19 21,1 C 21 % 1011 hPa 0,0 l/m 16,0 km/h W45 260 0 min 26,6 klux
04.10.2023 12:14 20,0 C 22 % 1011 hPa 0,0 l/m 12,5 km/h W-SW45 240 0 min 25,7 klux
04.10.2023 12:09 19,4 C 25 % 1011 hPa 0,0 l/m 29,0 km/h W-SW67.5 250 5 min 51,3 klux
04.10.2023 12:04 18,2 C 26 % 1011 hPa 0,0 l/m 31,6 km/h W-SW45 245 5 min 55,2 klux
04.10.2023 11:59 20,2 C 25 % 1011 hPa 0,0 l/m 27,8 km/h W-SW22.5 250 5 min 48,3 klux
04.10.2023 11:54 19,2 C 23 % 1011 hPa 0,0 l/m 20,7 km/h W-SW67.5 245 5 min 51,4 klux
04.10.2023 11:49 19,8 C 26 % 1011 hPa 0,0 l/m 23,6 km/h W-SW45 240 5 min 50,6 klux
04.10.2023 11:44 18,8 C 27 % 1011 hPa 0,0 l/m 31,9 km/h W-SW45 250 5 min 50,0 klux
04.10.2023 11:39 19,6 C 27 % 1011 hPa 0,0 l/m 30,4 km/h SW67.5 230 5 min 50,0 klux
04.10.2023 11:34 19,6 C 28 % 1011 hPa 0,0 l/m 19,6 km/h W-SW67.5 240 5 min 47,7 klux
04.10.2023 11:29 17,8 C 31 % 1011 hPa 0,0 l/m 16,8 km/h SW45 230 5 min 48,7 klux
04.10.2023 11:24 16,5 C 35 % 1011 hPa 0,0 l/m 15,3 km/h W-SW45 245 5 min 52,3 klux
04.10.2023 11:19 15,3 C 37 % 1011 hPa 0,0 l/m 21,0 km/h W-SW67.5 240 5 min 51,2 klux
04.10.2023 11:14 15,4 C 37 % 1011 hPa 0,0 l/m 18,3 km/h W-SW67.5 250 5 min 47,5 klux
04.10.2023 11:09 15,3 C 36 % 1011 hPa 0,0 l/m 18,0 km/h SW45 220 5 min 47,3 klux
04.10.2023 11:04 15,4 C 36 % 1011 hPa 0,0 l/m 18,2 km/h W67.5 270 5 min 44,6 klux
04.10.2023 10:59 16,6 C 39 % 1011 hPa 0,0 l/m 17,5 km/h W-SW67.5 255 5 min 44,1 klux
04.10.2023 10:54 16,7 C 41 % 1011 hPa 0,0 l/m 15,9 km/h SW67.5 215 5 min 43,2 klux
04.10.2023 10:49 14,1 C 45 % 1011 hPa 0,0 l/m 17,6 km/h SW45 235 5 min 44,4 klux
04.10.2023 10:44 13,9 C 46 % 1011 hPa 0,0 l/m 24,0 km/h SW45 225 5 min 43,7 klux
04.10.2023 10:39 13,7 C 47 % 1011 hPa 0,0 l/m 19,2 km/h SW45 230 5 min 40,8 klux
04.10.2023 10:34 13,9 C 48 % 1011 hPa 0,0 l/m 16,8 km/h W-SW45 240 5 min 38,5 klux
04.10.2023 10:29 13,8 C 48 % 1011 hPa 0,0 l/m 13,5 km/h W-SW45 240 5 min 39,0 klux
04.10.2023 10:24 13,6 C 50 % 1011 hPa 0,0 l/m 17,8 km/h S-SW67.5 210 5 min 38,9 klux
04.10.2023 10:19 12,8 C 52 % 1011 hPa 0,0 l/m 24,0 km/h W-SW67.5 245 5 min 36,4 klux
04.10.2023 10:14 13,0 C 53 % 1011 hPa 0,0 l/m 18,4 km/h W-SW45 240 5 min 37,0 klux
04.10.2023 10:09 12,9 C 56 % 1011 hPa 0,0 l/m 14,5 km/h SW45 230 5 min 36,9 klux
04.10.2023 10:04 12,8 C 57 % 1011 hPa 0,0 l/m 13,1 km/h SW22.5 230 5 min 32,5 klux
04.10.2023 09:59 14,1 C 76 % 1011 hPa 0,0 l/m 10,6 km/h SW45 235 0 min 19,7 klux
04.10.2023 09:54 14,1 C 76 % 1011 hPa 0,0 l/m 11,8 km/h SW45 230 5 min 31,7 klux
04.10.2023 09:49 14,0 C 81 % 1011 hPa 0,0 l/m 14,7 km/h SW45 215 5 min 32,2 klux
04.10.2023 09:44 11,7 C 82 % 1010 hPa 0,0 l/m 13,5 km/h SW67.5 230 5 min 33,0 klux
04.10.2023 09:39 11,2 C 82 % 1010 hPa 0,0 l/m 14,8 km/h W-SW45 255 0 min 14,9 klux
04.10.2023 09:34 11,2 C 83 % 1010 hPa 0,0 l/m 11,9 km/h SW45 230 5 min 33,9 klux
_ Min-Zeit 07:24 12:24 18:04 - 05:34 - - - -
Minimum _ 9,1 C 0 % 1002 hPa - 5,3 km/h - - - -
_ Max-Zeit 12:49 02:59 09:49 21:49 16:04 - - 18:49 12:24
Maximum _ 23,4 C 87 % 1011 hPa 0,7 l/m 32,5 km/h
W-SW
- - 5 min 56,4 klux
Durchschnitt _ 12,7 C 62 % 1008 hPa #2,5 l/m 15,9 km/h W-SW - #3:25 h 10,4 klux
copyright Stefan Zilt